sensor_id;sensor_type;location;lat;lon;timestamp;P1;durP1;ratioP1;P2;durP2;ratioP2
13057;SDS011;6595;49.578;11.012;2022-10-20T00:00:24;13.8;;;11.1;;
13057;SDS011;6595;49.578;11.012;2022-10-20T00:02:23;15.1;;;10.9;;
13057;SDS011;6595;49.578;11.012;2022-10-20T00:04:24;11.7;;;10.5;;
13057;SDS011;6595;49.578;11.012;2022-10-20T00:06:24;11.5;;;10.4;;
13057;SDS011;6595;49.578;11.012;2022-10-20T00:08:23;11.5;;;10.4;;
13057;SDS011;6595;49.578;11.012;2022-10-20T00:10:23;13.6;;;9.9;;
13057;SDS011;6595;49.578;11.012;2022-10-20T00:12:23;13.9;;;10.7;;
13057;SDS011;6595;49.578;11.012;2022-10-20T00:14:24;13.9;;;10.7;;
13057;SDS011;6595;49.578;11.012;2022-10-20T00:16:24;12.7;;;10.0;;
13057;SDS011;6595;49.578;11.012;2022-10-20T00:18:24;12.7;;;10.0;;
13057;SDS011;6595;49.578;11.012;2022-10-20T00:20:24;11.3;;;10.1;;
13057;SDS011;6595;49.578;11.012;2022-10-20T00:22:23;10.6;;;9.3;;
13057;SDS011;6595;49.578;11.012;2022-10-20T00:24:23;12.1;;;10.5;;
13057;SDS011;6595;49.578;11.012;2022-10-20T00:26:24;11.8;;;9.7;;
13057;SDS011;6595;49.578;11.012;2022-10-20T00:28:24;11.8;;;9.7;;
13057;SDS011;6595;49.578;11.012;2022-10-20T00:30:24;11.0;;;10.0;;
13057;SDS011;6595;49.578;11.012;2022-10-20T00:32:23;11.8;;;10.6;;
13057;SDS011;6595;49.578;11.012;2022-10-20T00:34:23;13.6;;;10.7;;
13057;SDS011;6595;49.578;11.012;2022-10-20T00:36:23;13.6;;;10.7;;
13057;SDS011;6595;49.578;11.012;2022-10-20T00:38:24;13.4;;;11.1;;
13057;SDS011;6595;49.578;11.012;2022-10-20T00:40:23;12.1;;;10.4;;
13057;SDS011;6595;49.578;11.012;2022-10-20T00:42:23;11.1;;;10.0;;
13057;SDS011;6595;49.578;11.012;2022-10-20T00:46:24;12.7;;;9.8;;
13057;SDS011;6595;49.578;11.012;2022-10-20T00:48:24;12.1;;;10.4;;
13057;SDS011;6595;49.578;11.012;2022-10-20T00:50:24;12.6;;;10.3;;
13057;SDS011;6595;49.578;11.012;2022-10-20T00:52:24;11.0;;;9.9;;
13057;SDS011;6595;49.578;11.012;2022-10-20T00:54:24;10.8;;;9.7;;
13057;SDS011;6595;49.578;11.012;2022-10-20T00:56:24;10.8;;;9.7;;
13057;SDS011;6595;49.578;11.012;2022-10-20T00:58:24;10.8;;;9.7;;
13057;SDS011;6595;49.578;11.012;2022-10-20T01:00:24;10.7;;;9.6;;
13057;SDS011;6595;49.578;11.012;2022-10-20T01:02:24;10.7;;;9.7;;
13057;SDS011;6595;49.578;11.012;2022-10-20T01:04:24;11.8;;;9.7;;
13057;SDS011;6595;49.578;11.012;2022-10-20T01:06:24;11.8;;;9.7;;
13057;SDS011;6595;49.578;11.012;2022-10-20T01:08:23;13.0;;;9.8;;
13057;SDS011;6595;49.578;11.012;2022-10-20T01:10:23;10.9;;;9.9;;
13057;SDS011;6595;49.578;11.012;2022-10-20T01:12:26;11.4;;;10.3;;
13057;SDS011;6595;49.578;11.012;2022-10-20T01:14:26;11.5;;;10.4;;
13057;SDS011;6595;49.578;11.012;2022-10-20T01:16:25;11.5;;;10.4;;
13057;SDS011;6595;49.578;11.012;2022-10-20T01:18:24;11.1;;;10.0;;
13057;SDS011;6595;49.578;11.012;2022-10-20T01:20:31;11.1;;;10.0;;
13057;SDS011;6595;49.578;11.012;2022-10-20T01:22:28;11.2;;;10.0;;
13057;SDS011;6595;49.578;11.012;2022-10-20T01:28:25;13.0;;;10.9;;
13057;SDS011;6595;49.578;11.012;2022-10-20T01:30:23;13.0;;;10.4;;
13057;SDS011;6595;49.578;11.012;2022-10-20T01:32:25;13.0;;;10.4;;
13057;SDS011;6595;49.578;11.012;2022-10-20T01:34:27;11.3;;;10.2;;
13057;SDS011;6595;49.578;11.012;2022-10-20T01:36:26;12.0;;;10.7;;
13057;SDS011;6595;49.578;11.012;2022-10-20T01:38:24;12.0;;;10.6;;
13057;SDS011;6595;49.578;11.012;2022-10-20T01:40:25;12.0;;;10.6;;
13057;SDS011;6595;49.578;11.012;2022-10-20T01:42:23;12.8;;;11.4;;
13057;SDS011;6595;49.578;11.012;2022-10-20T01:44:24;12.8;;;11.4;;
13057;SDS011;6595;49.578;11.012;2022-10-20T01:46:24;13.0;;;11.6;;
13057;SDS011;6595;49.578;11.012;2022-10-20T01:48:24;11.6;;;10.4;;
13057;SDS011;6595;49.578;11.012;2022-10-20T01:50:24;11.6;;;10.4;;
13057;SDS011;6595;49.578;11.012;2022-10-20T01:52:24;13.0;;;11.6;;
13057;SDS011;6595;49.578;11.012;2022-10-20T01:54:25;13.0;;;11.6;;
13057;SDS011;6595;49.578;11.012;2022-10-20T01:56:25;13.8;;;10.9;;
13057;SDS011;6595;49.578;11.012;2022-10-20T01:58:29;13.7;;;10.9;;
13057;SDS011;6595;49.578;11.012;2022-10-20T02:00:24;13.0;;;10.8;;
13057;SDS011;6595;49.578;11.012;2022-10-20T02:02:31;13.0;;;10.8;;
13057;SDS011;6595;49.578;11.012;2022-10-20T02:04:25;13.1;;;10.8;;
13057;SDS011;6595;49.578;11.012;2022-10-20T02:06:28;11.7;;;10.6;;
13057;SDS011;6595;49.578;11.012;2022-10-20T02:08:27;12.5;;;11.3;;
13057;SDS011;6595;49.578;11.012;2022-10-20T02:10:26;12.1;;;10.9;;
13057;SDS011;6595;49.578;11.012;2022-10-20T02:12:24;12.1;;;10.9;;
13057;SDS011;6595;49.578;11.012;2022-10-20T02:14:24;12.4;;;11.1;;
13057;SDS011;6595;49.578;11.012;2022-10-20T02:16:26;13.6;;;11.3;;
13057;SDS011;6595;49.578;11.012;2022-10-20T02:18:25;13.1;;;11.7;;
13057;SDS011;6595;49.578;11.012;2022-10-20T02:20:23;12.2;;;11.0;;
13057;SDS011;6595;49.578;11.012;2022-10-20T02:22:23;12.2;;;11.0;;
13057;SDS011;6595;49.578;11.012;2022-10-20T02:24:25;12.2;;;10.9;;
13057;SDS011;6595;49.578;11.012;2022-10-20T02:26:23;14.6;;;11.9;;
13057;SDS011;6595;49.578;11.012;2022-10-20T02:28:23;15.0;;;11.3;;
13057;SDS011;6595;49.578;11.012;2022-10-20T02:30:23;12.8;;;11.5;;
13057;SDS011;6595;49.578;11.012;2022-10-20T02:32:24;12.8;;;11.5;;
13057;SDS011;6595;49.578;11.012;2022-10-20T02:34:24;12.3;;;11.1;;
13057;SDS011;6595;49.578;11.012;2022-10-20T02:36:25;13.4;;;11.4;;
13057;SDS011;6595;49.578;11.012;2022-10-20T02:38:23;13.3;;;11.9;;
13057;SDS011;6595;49.578;11.012;2022-10-20T02:40:23;13.3;;;11.9;;
13057;SDS011;6595;49.578;11.012;2022-10-20T02:42:23;13.4;;;11.7;;
13057;SDS011;6595;49.578;11.012;2022-10-20T02:44:23;13.4;;;11.7;;
13057;SDS011;6595;49.578;11.012;2022-10-20T02:46:24;13.6;;;11.8;;
13057;SDS011;6595;49.578;11.012;2022-10-20T02:48:23;14.8;;;12.2;;
13057;SDS011;6595;49.578;11.012;2022-10-20T02:50:24;14.8;;;12.2;;
13057;SDS011;6595;49.578;11.012;2022-10-20T02:52:23;13.7;;;12.3;;
13057;SDS011;6595;49.578;11.012;2022-10-20T02:54:24;12.5;;;11.2;;
13057;SDS011;6595;49.578;11.012;2022-10-20T02:56:24;13.2;;;11.9;;
13057;SDS011;6595;49.578;11.012;2022-10-20T02:58:23;13.2;;;11.9;;
13057;SDS011;6595;49.578;11.012;2022-10-20T03:00:24;12.3;;;11.2;;
13057;SDS011;6595;49.578;11.012;2022-10-20T03:02:23;12.7;;;11.5;;
13057;SDS011;6595;49.578;11.012;2022-10-20T03:04:23;13.1;;;11.8;;
13057;SDS011;6595;49.578;11.012;2022-10-20T03:06:24;13.1;;;11.8;;
13057;SDS011;6595;49.578;11.012;2022-10-20T03:08:24;13.2;;;11.5;;
13057;SDS011;6595;49.578;11.012;2022-10-20T03:10:23;13.2;;;11.5;;
13057;SDS011;6595;49.578;11.012;2022-10-20T03:12:23;13.1;;;11.8;;
13057;SDS011;6595;49.578;11.012;2022-10-20T03:14:24;15.5;;;11.8;;
13057;SDS011;6595;49.578;11.012;2022-10-20T03:16:23;13.3;;;11.9;;
13057;SDS011;6595;49.578;11.012;2022-10-20T03:18:23;16.3;;;11.7;;
13057;SDS011;6595;49.578;11.012;2022-10-20T03:20:23;16.3;;;11.7;;
13057;SDS011;6595;49.578;11.012;2022-10-20T03:22:23;12.9;;;11.6;;
13057;SDS011;6595;49.578;11.012;2022-10-20T03:24:24;13.8;;;12.4;;
13057;SDS011;6595;49.578;11.012;2022-10-20T03:26:23;14.7;;;12.4;;
13057;SDS011;6595;49.578;11.012;2022-10-20T03:28:24;19.1;;;13.1;;
13057;SDS011;6595;49.578;11.012;2022-10-20T03:30:23;19.1;;;13.1;;
13057;SDS011;6595;49.578;11.012;2022-10-20T03:32:24;15.9;;;13.4;;
13057;SDS011;6595;49.578;11.012;2022-10-20T03:34:24;15.9;;;13.4;;
13057;SDS011;6595;49.578;11.012;2022-10-20T03:36:24;14.2;;;12.7;;
13057;SDS011;6595;49.578;11.012;2022-10-20T03:38:23;14.2;;;12.7;;
13057;SDS011;6595;49.578;11.012;2022-10-20T03:40:24;14.7;;;12.5;;
13057;SDS011;6595;49.578;11.012;2022-10-20T03:42:23;15.9;;;13.4;;
13057;SDS011;6595;49.578;11.012;2022-10-20T03:44:24;16.4;;;13.3;;
13057;SDS011;6595;49.578;11.012;2022-10-20T03:46:24;16.4;;;13.3;;
13057;SDS011;6595;49.578;11.012;2022-10-20T03:48:23;15.5;;;12.8;;
13057;SDS011;6595;49.578;11.012;2022-10-20T03:50:24;14.5;;;13.0;;
13057;SDS011;6595;49.578;11.012;2022-10-20T03:52:23;14.2;;;12.5;;
13057;SDS011;6595;49.578;11.012;2022-10-20T03:54:24;14.1;;;12.6;;
13057;SDS011;6595;49.578;11.012;2022-10-20T03:56:23;16.6;;;12.7;;
13057;SDS011;6595;49.578;11.012;2022-10-20T03:58:24;16.6;;;12.7;;
13057;SDS011;6595;49.578;11.012;2022-10-20T04:00:24;14.8;;;12.4;;
13057;SDS011;6595;49.578;11.012;2022-10-20T04:02:27;17.7;;;13.5;;
13057;SDS011;6595;49.578;11.012;2022-10-20T04:04:23;17.7;;;13.5;;
13057;SDS011;6595;49.578;11.012;2022-10-20T04:06:24;14.8;;;13.2;;
13057;SDS011;6595;49.578;11.012;2022-10-20T04:08:23;14.8;;;13.2;;
13057;SDS011;6595;49.578;11.012;2022-10-20T04:10:24;16.3;;;13.5;;
13057;SDS011;6595;49.578;11.012;2022-10-20T04:12:24;16.0;;;13.4;;
13057;SDS011;6595;49.578;11.012;2022-10-20T04:14:23;16.9;;;13.5;;
13057;SDS011;6595;49.578;11.012;2022-10-20T04:16:24;18.3;;;13.3;;
13057;SDS011;6595;49.578;11.012;2022-10-20T04:18:24;18.3;;;13.3;;
13057;SDS011;6595;49.578;11.012;2022-10-20T04:20:23;15.7;;;13.7;;
13057;SDS011;6595;49.578;11.012;2022-10-20T04:22:24;15.7;;;13.8;;
13057;SDS011;6595;49.578;11.012;2022-10-20T04:24:23;14.7;;;12.7;;
13057;SDS011;6595;49.578;11.012;2022-10-20T04:26:23;19.1;;;13.6;;
13057;SDS011;6595;49.578;11.012;2022-10-20T04:28:24;19.1;;;13.6;;
13057;SDS011;6595;49.578;11.012;2022-10-20T04:30:23;17.0;;;13.3;;
13057;SDS011;6595;49.578;11.012;2022-10-20T04:32:24;14.7;;;13.2;;
13057;SDS011;6595;49.578;11.012;2022-10-20T04:34:23;17.6;;;14.4;;
13057;SDS011;6595;49.578;11.012;2022-10-20T04:36:24;17.6;;;14.4;;
13057;SDS011;6595;49.578;11.012;2022-10-20T04:38:23;17.1;;;14.1;;
13057;SDS011;6595;49.578;11.012;2022-10-20T04:40:24;16.7;;;14.5;;
13057;SDS011;6595;49.578;11.012;2022-10-20T04:42:23;15.2;;;13.6;;
13057;SDS011;6595;49.578;11.012;2022-10-20T04:44:24;16.6;;;14.0;;
13057;SDS011;6595;49.578;11.012;2022-10-20T04:46:24;16.6;;;14.0;;
13057;SDS011;6595;49.578;11.012;2022-10-20T04:48:24;18.7;;;14.1;;
13057;SDS011;6595;49.578;11.012;2022-10-20T04:50:24;17.2;;;14.4;;
13057;SDS011;6595;49.578;11.012;2022-10-20T04:52:23;19.1;;;14.5;;
13057;SDS011;6595;49.578;11.012;2022-10-20T04:54:24;17.3;;;14.7;;
13057;SDS011;6595;49.578;11.012;2022-10-20T04:56:24;17.3;;;14.7;;
13057;SDS011;6595;49.578;11.012;2022-10-20T04:58:24;17.5;;;15.1;;
13057;SDS011;6595;49.578;11.012;2022-10-20T05:00:24;17.5;;;15.1;;
13057;SDS011;6595;49.578;11.012;2022-10-20T05:02:23;20.6;;;15.4;;
13057;SDS011;6595;49.578;11.012;2022-10-20T05:04:23;17.4;;;14.9;;
13057;SDS011;6595;49.578;11.012;2022-10-20T05:06:24;17.4;;;14.9;;
13057;SDS011;6595;49.578;11.012;2022-10-20T05:08:23;17.8;;;15.0;;
13057;SDS011;6595;49.578;11.012;2022-10-20T05:10:23;17.8;;;15.0;;
13057;SDS011;6595;49.578;11.012;2022-10-20T05:12:24;18.0;;;15.3;;
13057;SDS011;6595;49.578;11.012;2022-10-20T05:14:23;18.0;;;15.3;;
13057;SDS011;6595;49.578;11.012;2022-10-20T05:16:23;20.5;;;15.3;;
13057;SDS011;6595;49.578;11.012;2022-10-20T05:18:24;20.3;;;15.2;;
13057;SDS011;6595;49.578;11.012;2022-10-20T05:20:23;20.3;;;15.4;;
13057;SDS011;6595;49.578;11.012;2022-10-20T05:22:24;19.8;;;15.3;;
13057;SDS011;6595;49.578;11.012;2022-10-20T05:24:23;19.8;;;15.3;;
13057;SDS011;6595;49.578;11.012;2022-10-20T05:26:24;19.7;;;15.2;;
13057;SDS011;6595;49.578;11.012;2022-10-20T05:28:23;23.9;;;18.5;;
13057;SDS011;6595;49.578;11.012;2022-10-20T05:30:24;24.0;;;17.0;;
13057;SDS011;6595;49.578;11.012;2022-10-20T05:32:23;24.0;;;17.0;;
13057;SDS011;6595;49.578;11.012;2022-10-20T05:34:23;22.4;;;16.9;;
13057;SDS011;6595;49.578;11.012;2022-10-20T05:36:24;27.1;;;18.5;;
13057;SDS011;6595;49.578;11.012;2022-10-20T05:38:24;27.7;;;20.4;;
13057;SDS011;6595;49.578;11.012;2022-10-20T05:40:23;23.3;;;16.0;;
13057;SDS011;6595;49.578;11.012;2022-10-20T05:42:23;22.7;;;16.5;;
13057;SDS011;6595;49.578;11.012;2022-10-20T05:44:23;22.7;;;16.5;;
13057;SDS011;6595;49.578;11.012;2022-10-20T05:46:24;25.7;;;17.9;;
13057;SDS011;6595;49.578;11.012;2022-10-20T05:48:23;25.9;;;19.0;;
13057;SDS011;6595;49.578;11.012;2022-10-20T05:50:23;18.7;;;15.3;;
13057;SDS011;6595;49.578;11.012;2022-10-20T05:52:24;19.9;;;16.1;;
13057;SDS011;6595;49.578;11.012;2022-10-20T05:54:23;19.9;;;16.1;;
13057;SDS011;6595;49.578;11.012;2022-10-20T05:56:25;23.5;;;16.8;;
13057;SDS011;6595;49.578;11.012;2022-10-20T05:58:23;22.0;;;15.7;;
13057;SDS011;6595;49.578;11.012;2022-10-20T06:00:23;21.9;;;15.7;;
13057;SDS011;6595;49.578;11.012;2022-10-20T06:02:23;21.9;;;15.7;;
13057;SDS011;6595;49.578;11.012;2022-10-20T06:04:23;21.9;;;15.7;;
13057;SDS011;6595;49.578;11.012;2022-10-20T06:06:24;27.1;;;21.3;;
13057;SDS011;6595;49.578;11.012;2022-10-20T06:08:24;22.0;;;16.5;;
13057;SDS011;6595;49.578;11.012;2022-10-20T06:10:24;20.0;;;16.6;;
13057;SDS011;6595;49.578;11.012;2022-10-20T06:12:23;21.1;;;15.9;;
13057;SDS011;6595;49.578;11.012;2022-10-20T06:14:24;21.1;;;15.9;;
13057;SDS011;6595;49.578;11.012;2022-10-20T06:16:26;19.5;;;16.3;;
13057;SDS011;6595;49.578;11.012;2022-10-20T06:18:23;23.6;;;17.1;;
13057;SDS011;6595;49.578;11.012;2022-10-20T06:20:24;19.9;;;16.2;;
13057;SDS011;6595;49.578;11.012;2022-10-20T06:22:23;19.6;;;16.2;;
13057;SDS011;6595;49.578;11.012;2022-10-20T06:24:24;19.6;;;16.2;;
13057;SDS011;6595;49.578;11.012;2022-10-20T06:26:24;21.5;;;16.6;;
13057;SDS011;6595;49.578;11.012;2022-10-20T06:28:23;21.5;;;16.6;;
13057;SDS011;6595;49.578;11.012;2022-10-20T06:30:24;21.0;;;16.7;;
13057;SDS011;6595;49.578;11.012;2022-10-20T06:32:23;21.0;;;16.7;;
13057;SDS011;6595;49.578;11.012;2022-10-20T06:34:23;19.4;;;15.6;;
13057;SDS011;6595;49.578;11.012;2022-10-20T06:36:24;24.4;;;18.0;;
13057;SDS011;6595;49.578;11.012;2022-10-20T06:38:24;20.6;;;15.6;;
13057;SDS011;6595;49.578;11.012;2022-10-20T06:40:23;17.0;;;14.4;;
13057;SDS011;6595;49.578;11.012;2022-10-20T06:42:23;17.0;;;14.4;;
13057;SDS011;6595;49.578;11.012;2022-10-20T06:44:23;16.6;;;13.3;;
13057;SDS011;6595;49.578;11.012;2022-10-20T06:46:23;16.3;;;14.2;;
13057;SDS011;6595;49.578;11.012;2022-10-20T06:48:24;14.7;;;13.2;;
13057;SDS011;6595;49.578;11.012;2022-10-20T06:50:24;14.7;;;13.2;;
13057;SDS011;6595;49.578;11.012;2022-10-20T06:52:23;14.8;;;13.3;;
13057;SDS011;6595;49.578;11.012;2022-10-20T06:54:23;15.4;;;12.9;;
13057;SDS011;6595;49.578;11.012;2022-10-20T06:56:25;14.0;;;12.3;;
13057;SDS011;6595;49.578;11.012;2022-10-20T06:58:23;12.8;;;11.6;;
13057;SDS011;6595;49.578;11.012;2022-10-20T07:00:23;12.8;;;11.6;;
13057;SDS011;6595;49.578;11.012;2022-10-20T07:02:24;14.2;;;12.0;;
13057;SDS011;6595;49.578;11.012;2022-10-20T07:04:24;12.4;;;10.8;;
13057;SDS011;6595;49.578;11.012;2022-10-20T07:06:24;15.2;;;11.5;;
13057;SDS011;6595;49.578;11.012;2022-10-20T07:08:25;13.2;;;11.2;;
13057;SDS011;6595;49.578;11.012;2022-10-20T07:10:24;13.2;;;11.2;;
13057;SDS011;6595;49.578;11.012;2022-10-20T07:12:23;16.5;;;12.9;;
13057;SDS011;6595;49.578;11.012;2022-10-20T07:14:24;16.4;;;12.0;;
13057;SDS011;6595;49.578;11.012;2022-10-20T07:16:24;12.7;;;10.9;;
13057;SDS011;6595;49.578;11.012;2022-10-20T07:18:24;14.2;;;11.6;;
13057;SDS011;6595;49.578;11.012;2022-10-20T07:20:24;14.2;;;11.6;;
13057;SDS011;6595;49.578;11.012;2022-10-20T07:22:23;12.4;;;10.8;;
13057;SDS011;6595;49.578;11.012;2022-10-20T07:24:24;13.8;;;10.9;;
13057;SDS011;6595;49.578;11.012;2022-10-20T07:26:24;13.9;;;10.4;;
13057;SDS011;6595;49.578;11.012;2022-10-20T07:28:23;13.9;;;10.4;;
13057;SDS011;6595;49.578;11.012;2022-10-20T07:30:23;12.3;;;10.0;;
13057;SDS011;6595;49.578;11.012;2022-10-20T07:32:23;12.5;;;10.2;;
13057;SDS011;6595;49.578;11.012;2022-10-20T07:34:24;11.7;;;9.9;;
13057;SDS011;6595;49.578;11.012;2022-10-20T07:36:24;12.5;;;10.1;;
13057;SDS011;6595;49.578;11.012;2022-10-20T07:38:23;11.1;;;9.0;;
13057;SDS011;6595;49.578;11.012;2022-10-20T07:40:24;11.1;;;9.0;;
13057;SDS011;6595;49.578;11.012;2022-10-20T07:42:23;9.3;;;8.3;;
13057;SDS011;6595;49.578;11.012;2022-10-20T07:44:24;11.7;;;8.9;;
13057;SDS011;6595;49.578;11.012;2022-10-20T07:46:24;11.7;;;8.9;;
13057;SDS011;6595;49.578;11.012;2022-10-20T07:48:23;11.1;;;8.5;;
13057;SDS011;6595;49.578;11.012;2022-10-20T07:50:24;11.1;;;8.5;;
13057;SDS011;6595;49.578;11.012;2022-10-20T07:52:23;11.1;;;8.5;;
13057;SDS011;6595;49.578;11.012;2022-10-20T07:54:24;10.0;;;8.1;;
13057;SDS011;6595;49.578;11.012;2022-10-20T07:56:23;9.6;;;8.6;;
13057;SDS011;6595;49.578;11.012;2022-10-20T07:58:24;9.6;;;8.6;;
13057;SDS011;6595;49.578;11.012;2022-10-20T08:00:23;10.9;;;8.8;;
13057;SDS011;6595;49.578;11.012;2022-10-20T08:02:24;10.3;;;8.3;;
13057;SDS011;6595;49.578;11.012;2022-10-20T08:04:24;8.4;;;7.5;;
13057;SDS011;6595;49.578;11.012;2022-10-20T08:06:24;8.4;;;7.5;;
13057;SDS011;6595;49.578;11.012;2022-10-20T08:08:23;12.7;;;8.2;;
13057;SDS011;6595;49.578;11.012;2022-10-20T08:10:23;9.1;;;8.0;;
13057;SDS011;6595;49.578;11.012;2022-10-20T08:12:24;8.1;;;7.3;;
13057;SDS011;6595;49.578;11.012;2022-10-20T08:14:23;8.1;;;7.3;;
13057;SDS011;6595;49.578;11.012;2022-10-20T08:16:23;10.7;;;7.7;;
13057;SDS011;6595;49.578;11.012;2022-10-20T08:18:23;9.3;;;7.0;;
13057;SDS011;6595;49.578;11.012;2022-10-20T08:20:23;11.9;;;8.0;;
13057;SDS011;6595;49.578;11.012;2022-10-20T08:22:23;11.5;;;8.1;;
13057;SDS011;6595;49.578;11.012;2022-10-20T08:24:24;7.8;;;7.1;;
13057;SDS011;6595;49.578;11.012;2022-10-20T08:26:24;7.8;;;7.1;;
13057;SDS011;6595;49.578;11.012;2022-10-20T08:28:23;8.3;;;7.4;;
13057;SDS011;6595;49.578;11.012;2022-10-20T08:30:24;8.4;;;7.6;;
13057;SDS011;6595;49.578;11.012;2022-10-20T08:32:23;8.0;;;7.0;;
13057;SDS011;6595;49.578;11.012;2022-10-20T08:34:23;8.2;;;7.4;;
13057;SDS011;6595;49.578;11.012;2022-10-20T08:36:23;8.8;;;6.9;;
13057;SDS011;6595;49.578;11.012;2022-10-20T08:38:24;8.8;;;6.9;;
13057;SDS011;6595;49.578;11.012;2022-10-20T08:40:24;8.3;;;6.8;;
13057;SDS011;6595;49.578;11.012;2022-10-20T08:42:23;8.0;;;6.6;;
13057;SDS011;6595;49.578;11.012;2022-10-20T08:44:25;8.4;;;6.5;;
13057;SDS011;6595;49.578;11.012;2022-10-20T08:46:26;8.4;;;6.5;;
13057;SDS011;6595;49.578;11.012;2022-10-20T08:48:24;7.9;;;7.1;;
13057;SDS011;6595;49.578;11.012;2022-10-20T08:50:24;8.6;;;7.3;;
13057;SDS011;6595;49.578;11.012;2022-10-20T08:52:23;7.0;;;6.3;;
13057;SDS011;6595;49.578;11.012;2022-10-20T08:54:23;7.1;;;6.4;;
13057;SDS011;6595;49.578;11.012;2022-10-20T08:56:24;7.1;;;6.4;;
13057;SDS011;6595;49.578;11.012;2022-10-20T08:58:24;7.6;;;6.6;;
13057;SDS011;6595;49.578;11.012;2022-10-20T09:00:23;6.9;;;6.2;;
13057;SDS011;6595;49.578;11.012;2022-10-20T09:02:24;10.2;;;6.3;;
13057;SDS011;6595;49.578;11.012;2022-10-20T09:04:25;17.1;;;7.1;;
13057;SDS011;6595;49.578;11.012;2022-10-20T09:06:24;17.1;;;7.1;;
13057;SDS011;6595;49.578;11.012;2022-10-20T09:08:25;26.0;;;8.1;;
13057;SDS011;6595;49.578;11.012;2022-10-20T09:10:25;13.9;;;6.9;;
13057;SDS011;6595;49.578;11.012;2022-10-20T09:12:24;13.9;;;6.9;;
13057;SDS011;6595;49.578;11.012;2022-10-20T09:14:23;8.6;;;6.6;;
13057;SDS011;6595;49.578;11.012;2022-10-20T09:16:24;14.9;;;6.3;;
13057;SDS011;6595;49.578;11.012;2022-10-20T09:18:23;19.8;;;7.6;;
13057;SDS011;6595;49.578;11.012;2022-10-20T09:20:24;12.3;;;6.7;;
13057;SDS011;6595;49.578;11.012;2022-10-20T09:22:23;12.3;;;6.7;;
13057;SDS011;6595;49.578;11.012;2022-10-20T09:24:24;6.1;;;5.6;;
13057;SDS011;6595;49.578;11.012;2022-10-20T09:26:27;6.1;;;5.6;;
13057;SDS011;6595;49.578;11.012;2022-10-20T09:28:24;7.3;;;5.7;;
13057;SDS011;6595;49.578;11.012;2022-10-20T09:30:30;6.4;;;5.8;;
13057;SDS011;6595;49.578;11.012;2022-10-20T09:32:30;7.0;;;5.5;;
13057;SDS011;6595;49.578;11.012;2022-10-20T09:34:24;7.0;;;5.5;;
13057;SDS011;6595;49.578;11.012;2022-10-20T09:36:24;7.7;;;5.6;;
13057;SDS011;6595;49.578;11.012;2022-10-20T09:38:25;6.6;;;5.8;;
13057;SDS011;6595;49.578;11.012;2022-10-20T09:40:23;12.1;;;8.0;;
13057;SDS011;6595;49.578;11.012;2022-10-20T09:42:24;7.5;;;5.9;;
13057;SDS011;6595;49.578;11.012;2022-10-20T09:44:23;7.5;;;5.9;;
13057;SDS011;6595;49.578;11.012;2022-10-20T09:46:24;6.4;;;5.7;;
13057;SDS011;6595;49.578;11.012;2022-10-20T09:48:24;6.4;;;5.7;;
13057;SDS011;6595;49.578;11.012;2022-10-20T09:50:25;7.5;;;5.4;;
13057;SDS011;6595;49.578;11.012;2022-10-20T09:52:24;12.1;;;5.4;;
13057;SDS011;6595;49.578;11.012;2022-10-20T09:54:24;12.1;;;5.4;;
13057;SDS011;6595;49.578;11.012;2022-10-20T09:56:25;7.4;;;5.6;;
13057;SDS011;6595;49.578;11.012;2022-10-20T09:58:25;5.9;;;5.3;;
13057;SDS011;6595;49.578;11.012;2022-10-20T10:00:25;7.1;;;5.1;;
13057;SDS011;6595;49.578;11.012;2022-10-20T10:02:26;7.1;;;5.1;;
13057;SDS011;6595;49.578;11.012;2022-10-20T10:04:29;5.9;;;5.4;;
13057;SDS011;6595;49.578;11.012;2022-10-20T10:06:28;7.2;;;4.9;;
13057;SDS011;6595;49.578;11.012;2022-10-20T10:08:25;5.5;;;5.0;;
13057;SDS011;6595;49.578;11.012;2022-10-20T10:10:24;5.5;;;5.0;;
13057;SDS011;6595;49.578;11.012;2022-10-20T10:12:24;6.2;;;5.0;;
13057;SDS011;6595;49.578;11.012;2022-10-20T10:14:23;7.0;;;5.0;;
13057;SDS011;6595;49.578;11.012;2022-10-20T10:16:23;5.4;;;4.5;;
13057;SDS011;6595;49.578;11.012;2022-10-20T10:18:24;4.9;;;4.5;;
13057;SDS011;6595;49.578;11.012;2022-10-20T10:20:27;4.9;;;4.5;;
13057;SDS011;6595;49.578;11.012;2022-10-20T10:22:24;5.7;;;5.2;;
13057;SDS011;6595;49.578;11.012;2022-10-20T10:24:27;6.5;;;5.2;;
13057;SDS011;6595;49.578;11.012;2022-10-20T10:28:28;6.8;;;5.3;;
13057;SDS011;6595;49.578;11.012;2022-10-20T10:30:25;6.8;;;5.3;;
13057;SDS011;6595;49.578;11.012;2022-10-20T10:32:24;6.7;;;5.2;;
13057;SDS011;6595;49.578;11.012;2022-10-20T10:34:27;4.9;;;4.5;;
13057;SDS011;6595;49.578;11.012;2022-10-20T10:36:26;5.7;;;4.6;;
13057;SDS011;6595;49.578;11.012;2022-10-20T10:38:24;5.6;;;5.1;;
13057;SDS011;6595;49.578;11.012;2022-10-20T10:40:27;5.5;;;4.6;;
13057;SDS011;6595;49.578;11.012;2022-10-20T10:42:34;5.5;;;4.6;;
13057;SDS011;6595;49.578;11.012;2022-10-20T10:44:26;4.9;;;4.5;;
13057;SDS011;6595;49.578;11.012;2022-10-20T10:46:25;5.2;;;4.8;;
13057;SDS011;6595;49.578;11.012;2022-10-20T10:48:35;7.9;;;4.6;;
13057;SDS011;6595;49.578;11.012;2022-10-20T10:50:25;7.1;;;5.2;;
13057;SDS011;6595;49.578;11.012;2022-10-20T10:52:27;7.1;;;5.2;;
13057;SDS011;6595;49.578;11.012;2022-10-20T10:54:27;5.9;;;5.1;;
13057;SDS011;6595;49.578;11.012;2022-10-20T10:56:26;5.0;;;4.5;;
13057;SDS011;6595;49.578;11.012;2022-10-20T10:58:27;5.8;;;4.6;;
13057;SDS011;6595;49.578;11.012;2022-10-20T11:00:28;5.8;;;4.6;;
13057;SDS011;6595;49.578;11.012;2022-10-20T11:02:28;4.6;;;4.2;;
13057;SDS011;6595;49.578;11.012;2022-10-20T11:06:24;4.4;;;4.0;;
13057;SDS011;6595;49.578;11.012;2022-10-20T11:08:26;4.4;;;4.0;;
13057;SDS011;6595;49.578;11.012;2022-10-20T11:10:25;4.8;;;4.4;;
13057;SDS011;6595;49.578;11.012;2022-10-20T11:12:27;4.8;;;4.3;;
13057;SDS011;6595;49.578;11.012;2022-10-20T11:14:28;4.7;;;3.8;;
13057;SDS011;6595;49.578;11.012;2022-10-20T11:16:27;4.9;;;4.4;;
13057;SDS011;6595;49.578;11.012;2022-10-20T11:18:29;5.7;;;4.1;;
13057;SDS011;6595;49.578;11.012;2022-10-20T11:20:26;5.7;;;4.1;;
13057;SDS011;6595;49.578;11.012;2022-10-20T11:22:25;5.8;;;4.0;;
13057;SDS011;6595;49.578;11.012;2022-10-20T11:24:27;4.7;;;4.1;;
13057;SDS011;6595;49.578;11.012;2022-10-20T11:26:24;4.8;;;4.1;;
13057;SDS011;6595;49.578;11.012;2022-10-20T11:28:26;5.2;;;4.0;;
13057;SDS011;6595;49.578;11.012;2022-10-20T11:30:24;5.2;;;4.0;;
13057;SDS011;6595;49.578;11.012;2022-10-20T11:32:25;5.2;;;3.8;;
13057;SDS011;6595;49.578;11.012;2022-10-20T11:34:24;3.8;;;3.5;;
13057;SDS011;6595;49.578;11.012;2022-10-20T11:36:24;8.0;;;4.0;;
13057;SDS011;6595;49.578;11.012;2022-10-20T11:38:25;8.0;;;4.0;;
13057;SDS011;6595;49.578;11.012;2022-10-20T11:40:25;5.8;;;3.8;;
13057;SDS011;6595;49.578;11.012;2022-10-20T11:42:25;5.8;;;3.8;;
13057;SDS011;6595;49.578;11.012;2022-10-20T11:44:24;5.4;;;3.9;;
13057;SDS011;6595;49.578;11.012;2022-10-20T11:46:25;5.4;;;3.9;;
13057;SDS011;6595;49.578;11.012;2022-10-20T11:48:24;4.1;;;3.8;;
13057;SDS011;6595;49.578;11.012;2022-10-20T11:50:24;5.0;;;3.6;;
13057;SDS011;6595;49.578;11.012;2022-10-20T11:52:31;3.7;;;3.3;;
13057;SDS011;6595;49.578;11.012;2022-10-20T11:54:26;7.4;;;4.2;;
13057;SDS011;6595;49.578;11.012;2022-10-20T11:58:35;8.4;;;4.9;;
13057;SDS011;6595;49.578;11.012;2022-10-20T12:00:34;8.4;;;4.9;;
13057;SDS011;6595;49.578;11.012;2022-10-20T12:02:30;5.4;;;4.1;;
13057;SDS011;6595;49.578;11.012;2022-10-20T12:04:27;17.6;;;4.5;;
13057;SDS011;6595;49.578;11.012;2022-10-20T12:06:26;3.6;;;3.3;;
13057;SDS011;6595;49.578;11.012;2022-10-20T12:08:27;4.1;;;3.3;;
13057;SDS011;6595;49.578;11.012;2022-10-20T12:10:26;4.1;;;3.3;;
13057;SDS011;6595;49.578;11.012;2022-10-20T12:12:25;4.0;;;3.5;;
13057;SDS011;6595;49.578;11.012;2022-10-20T12:14:25;3.6;;;3.4;;
13057;SDS011;6595;49.578;11.012;2022-10-20T12:18:25;5.0;;;3.5;;
13057;SDS011;6595;49.578;11.012;2022-10-20T12:24:33;6.3;;;4.1;;
13057;SDS011;6595;49.578;11.012;2022-10-20T12:28:32;8.1;;;4.0;;
13057;SDS011;6595;49.578;11.012;2022-10-20T12:32:24;3.8;;;3.2;;